Time;durP1;ratioP1;P1;durP2;ratioP2;P2;SDS_P1;SDS_P2;PMS_P1;PMS_P2;Temp;Humidity;BMP_temperature;BMP_pressure;BME280_temperature;BME280_humidity;BME280_pressure;Samples;Min_cycle;Max_cycle;Signal;HPM_P1;HPM_P2
2023/03/29 03:02:47;;;;;;;2.60;1.37;;;7.60;80.50;;;;;;5089219;23;20278;-72
2023/03/29 03:05:13;;;;;;;2.40;1.30;;;7.60;79.80;;;;;;4977009;28;20910;-73
2023/03/29 03:07:40;;;;;;;2.60;1.33;;;7.70;79.70;;;;;;4977042;28;20446;-73
2023/03/29 03:10:08;;;;;;;2.40;1.20;;;7.80;79.40;;;;;;4977315;28;20454;-72
2023/03/29 03:12:36;;;;;;;2.60;1.10;;;7.80;78.80;;;;;;4977172;28;20532;-73
2023/03/29 03:15:04;;;;;;;5.07;4.57;;;7.90;78.60;;;;;;4977658;28;20447;-72
2023/03/29 03:17:31;;;;;;;4.63;2.30;;;7.70;78.00;;;;;;4977018;28;20893;-73
2023/03/29 03:19:59;;;;;;;2.30;1.20;;;7.80;78.40;;;;;;4976743;28;20947;-73
2023/03/29 03:22:26;;;;;;;2.20;1.10;;;7.60;77.50;;;;;;4976945;28;20470;-73
2023/03/29 03:24:53;;;;;;;2.20;1.10;;;7.70;77.60;;;;;;4976787;28;20532;-73
2023/03/29 03:27:20;;;;;;;3.80;1.30;;;7.70;77.50;;;;;;4976521;28;20856;-73
2023/03/29 03:29:47;;;;;;;2.60;1.40;;;7.90;77.10;;;;;;4976794;28;20458;-74
2023/03/29 03:32:14;;;;;;;2.10;0.93;;;7.90;76.30;;;;;;4976456;28;20469;-73
2023/03/29 03:34:40;;;;;;;2.43;1.53;;;8.00;76.20;;;;;;4976609;28;20819;-73
2023/03/29 03:37:10;;;;;;;2.00;1.07;;;7.90;76.10;;;;;;4976373;28;20485;-73
2023/03/29 03:39:37;;;;;;;2.17;1.10;;;7.90;76.60;;;;;;4977456;28;20553;-73
2023/03/29 03:42:04;;;;;;;2.70;1.53;;;7.90;77.00;;;;;;4976580;28;20521;-73
2023/03/29 03:44:31;;;;;;;2.80;1.20;;;7.80;76.80;;;;;;4976508;28;20497;-74
2023/03/29 03:46:57;;;;;;;2.50;1.13;;;7.60;76.40;;;;;;4976552;28;20446;-72
2023/03/29 03:49:24;;;;;;;4.23;1.30;;;7.50;76.70;;;;;;4976458;28;20446;-73
2023/03/29 03:51:51;;;;;;;2.40;1.10;;;7.40;76.70;;;;;;4975847;28;20470;-73
2023/03/29 03:54:19;;;;;;;2.77;1.30;;;7.30;76.90;;;;;;4976419;28;20462;-72
2023/03/29 03:56:47;;;;;;;3.27;1.30;;;7.20;76.90;;;;;;4976459;28;20508;-73
2023/03/29 03:59:14;;;;;;;2.50;1.00;;;7.20;77.60;;;;;;4976318;28;20863;-72
2023/03/29 04:01:42;;;;;;;3.37;1.40;;;7.30;76.60;;;;;;4976115;28;20493;-72
2023/03/29 04:04:09;;;;;;;2.20;1.13;;;7.40;75.30;;;;;;4976826;28;20458;-73
2023/03/29 04:06:36;;;;;;;2.23;1.00;;;7.50;75.30;;;;;;4977182;28;20450;-73
2023/03/29 04:09:03;;;;;;;2.13;1.10;;;7.50;75.00;;;;;;4976336;28;20462;-72
2023/03/29 04:11:32;;;;;;;2.70;1.20;;;7.60;75.00;;;;;;4976088;28;20529;-73
2023/03/29 04:13:59;;;;;;;2.33;1.00;;;7.80;74.30;;;;;;4975868;28;20454;-73
2023/03/29 04:16:26;;;;;;;2.03;0.90;;;8.00;73.80;;;;;;4976074;28;20512;-74
2023/03/29 04:18:52;;;;;;;2.40;1.00;;;8.00;74.10;;;;;;4976113;28;20455;-73
2023/03/29 04:21:20;;;;;;;2.60;1.20;;;8.10;73.30;;;;;;4975886;28;20474;-73
2023/03/29 04:23:47;;;;;;;2.60;1.00;;;8.20;72.90;;;;;;4975869;28;20489;-73
2023/03/29 04:26:14;;;;;;;2.50;1.20;;;8.30;73.00;;;;;;4975859;28;20498;-74
2023/03/29 04:28:42;;;;;;;2.50;1.37;;;8.40;72.60;;;;;;4975532;28;20505;-73
2023/03/29 04:31:11;;;;;;;2.20;1.17;;;8.40;71.90;;;;;;4975702;28;20523;-74
2023/03/29 04:33:38;;;;;;;2.23;1.10;;;8.30;72.30;;;;;;4975705;28;20541;-72
2023/03/29 04:36:05;;;;;;;2.13;1.10;;;8.50;72.60;;;;;;4975744;28;20449;-72
2023/03/29 04:38:34;;;;;;;2.53;1.30;;;8.50;71.80;;;;;;4975711;28;20536;-74
2023/03/29 04:41:02;;;;;;;2.23;1.13;;;8.60;72.20;;;;;;4975538;28;20470;-73
2023/03/29 04:43:29;;;;;;;2.00;0.90;;;8.70;71.70;;;;;;4975406;28;20794;-73
2023/03/29 04:45:58;;;;;;;2.80;0.97;;;8.60;71.30;;;;;;4975205;28;20478;-73
2023/03/29 04:48:25;;;;;;;2.70;1.10;;;8.60;72.00;;;;;;4975483;28;20472;-73
2023/03/29 04:50:53;;;;;;;2.33;0.90;;;8.70;71.70;;;;;;4975328;28;20561;-73
2023/03/29 04:53:20;;;;;;;2.30;0.90;;;8.90;71.70;;;;;;4975914;28;20458;-72
2023/03/29 04:55:47;;;;;;;2.40;1.13;;;9.10;71.30;;;;;;4975372;28;20458;-72
2023/03/29 04:58:14;;;;;;;2.67;1.20;;;9.20;71.00;;;;;;4975704;28;20457;-73
2023/03/29 05:00:41;;;;;;;2.20;1.10;;;9.30;70.30;;;;;;4974817;28;20982;-73
2023/03/29 05:03:13;;;;;;;3.03;1.27;;;9.40;69.70;;;;;;4974467;28;20435;-72
2023/03/29 05:05:40;;;;;;;2.40;1.00;;;9.30;69.80;;;;;;4974835;28;20477;-73
2023/03/29 05:08:08;;;;;;;2.77;1.30;;;9.40;70.20;;;;;;4975124;28;20446;-73
2023/03/29 05:10:34;;;;;;;2.10;0.97;;;9.40;70.30;;;;;;4975073;28;20454;-73
2023/03/29 05:13:02;;;;;;;2.77;1.30;;;9.40;69.80;;;;;;4975145;28;20450;-72
2023/03/29 05:15:29;;;;;;;2.10;0.90;;;9.10;70.10;;;;;;4975026;28;20496;-72
2023/03/29 05:17:57;;;;;;;2.10;0.90;;;8.90;70.70;;;;;;4974910;28;20478;-73
2023/03/29 05:20:25;;;;;;;2.10;1.00;;;8.80;70.60;;;;;;4974863;28;20489;-73
2023/03/29 05:22:52;;;;;;;2.10;1.00;;;8.80;70.80;;;;;;4974740;28;20951;-73
2023/03/29 05:25:19;;;;;;;2.40;1.00;;;9.00;70.90;;;;;;4974550;28;21014;-73
2023/03/29 05:27:46;;;;;;;2.13;0.87;;;8.90;70.00;;;;;;4974754;28;20545;-73
2023/03/29 05:30:14;;;;;;;2.97;1.00;;;8.80;70.20;;;;;;4974751;28;20524;-73
2023/03/29 05:32:41;;;;;;;2.70;1.10;;;8.90;70.60;;;;;;4974708;28;20585;-73
2023/03/29 05:35:09;;;;;;;1.90;0.93;;;9.00;70.40;;;;;;4974906;28;20557;-73
2023/03/29 05:37:38;;;;;;;2.77;1.00;;;9.00;71.10;;;;;;4974739;28;20570;-74
2023/03/29 05:40:07;;;;;;;2.00;0.90;;;9.00;71.40;;;;;;4974569;28;20446;-73
2023/03/29 05:42:34;;;;;;;2.03;0.90;;;9.20;71.00;;;;;;4974793;28;20474;-73
2023/03/29 05:45:00;;;;;;;2.10;0.90;;;9.30;70.60;;;;;;4974459;28;20520;-74
2023/03/29 05:47:27;;;;;;;2.00;1.00;;;9.40;69.50;;;;;;4974757;28;20458;-74
2023/03/29 05:49:54;;;;;;;2.63;1.10;;;9.50;69.50;;;;;;4974604;28;20505;-73
2023/03/29 05:52:21;;;;;;;2.40;1.10;;;9.50;69.90;;;;;;4974410;28;21003;-73
2023/03/29 05:54:49;;;;;;;2.60;1.47;;;9.60;69.30;;;;;;4975528;28;20454;-73
2023/03/29 05:57:16;;;;;;;2.30;0.93;;;9.70;68.90;;;;;;4976852;28;20457;-73
2023/03/29 05:59:42;;;;;;;3.10;1.30;;;9.80;69.50;;;;;;4978854;28;20445;-73
2023/03/29 06:02:10;;;;;;;2.87;1.10;;;9.80;69.70;;;;;;4976601;28;20602;-74
2023/03/29 06:04:37;;;;;;;3.17;1.00;;;9.70;68.60;;;;;;4975212;28;20541;-73
2023/03/29 06:07:04;;;;;;;1.90;0.80;;;9.60;68.60;;;;;;4974816;28;20477;-73
2023/03/29 06:09:31;;;;;;;1.87;0.83;;;9.60;68.70;;;;;;4974385;28;20454;-73
2023/03/29 06:12:00;;;;;;;2.17;1.10;;;9.70;68.50;;;;;;4976158;28;20565;-73
2023/03/29 06:14:27;;;;;;;2.30;1.10;;;9.80;68.40;;;;;;4976359;28;20505;-74
2023/03/29 06:16:55;;;;;;;3.80;1.10;;;10.00;68.80;;;;;;4974189;28;20485;-73
2023/03/29 06:19:22;;;;;;;2.07;0.80;;;10.00;68.20;;;;;;4974070;28;20450;-72
2023/03/29 06:21:48;;;;;;;2.20;1.00;;;10.00;68.50;;;;;;4974127;28;20481;-73
2023/03/29 06:24:15;;;;;;;2.37;1.03;;;10.20;68.80;;;;;;4973964;28;20450;-72
2023/03/29 06:26:42;;;;;;;1.90;0.70;;;10.30;68.60;;;;;;4973967;28;20541;-72
2023/03/29 06:29:10;;;;;;;2.40;1.10;;;10.40;68.50;;;;;;4973722;28;20808;-72
2023/03/29 06:31:36;;;;;;;4.37;1.00;;;10.40;66.70;;;;;;4974037;28;20502;-73
2023/03/29 06:34:03;;;;;;;3.23;1.17;;;10.40;67.40;;;;;;4973882;28;20457;-72
2023/03/29 06:36:30;;;;;;;2.63;1.10;;;10.40;67.00;;;;;;4973972;28;20477;-73
2023/03/29 06:38:57;;;;;;;2.20;0.90;;;10.40;67.40;;;;;;4973551;28;20458;-73
2023/03/29 06:41:23;;;;;;;1.90;0.80;;;10.50;67.50;;;;;;4973610;28;20524;-73
2023/03/29 06:43:50;;;;;;;2.10;0.93;;;10.60;67.00;;;;;;4974029;28;20442;-73
2023/03/29 06:46:18;;;;;;;7.00;1.10;;;10.50;68.40;;;;;;4973786;28;20481;-73
2023/03/29 06:48:47;;;;;;;3.43;1.17;;;10.50;69.10;;;;;;4973996;28;20508;-74
2023/03/29 06:51:13;;;;;;;2.83;1.10;;;10.40;69.30;;;;;;4973755;28;20557;-72
2023/03/29 06:53:40;;;;;;;2.50;1.20;;;10.30;70.10;;;;;;4973834;28;20450;-73
2023/03/29 06:56:08;;;;;;;2.57;1.30;;;10.30;70.10;;;;;;4973735;28;20450;-73
2023/03/29 06:58:35;;;;;;;2.20;1.10;;;10.30;68.40;;;;;;4973583;28;20816;-72
2023/03/29 07:01:02;;;;;;;2.40;0.80;;;10.10;69.50;;;;;;4973475;28;20568;-72
2023/03/29 07:03:32;;;;;;;2.33;1.00;;;10.20;69.50;;;;;;4973764;28;20938;-73
2023/03/29 07:06:08;;;;;;;2.10;1.00;;;10.00;69.80;;;;;;4973798;28;20481;-72
2023/03/29 07:08:39;;;;;;;2.60;1.10;;;10.00;69.10;;;;;;4973963;28;20503;-74
2023/03/29 07:11:07;;;;;;;2.50;1.30;;;10.20;69.70;;;;;;4973703;28;21006;-73
2023/03/29 07:13:33;;;;;;;2.33;1.10;;;10.40;69.30;;;;;;4973742;28;20458;-74
2023/03/29 07:16:00;;;;;;;2.33;1.20;;;10.30;68.40;;;;;;4973655;28;20447;-72
2023/03/29 07:18:27;;;;;;;2.60;1.00;;;10.40;68.60;;;;;;4973678;28;20481;-74
2023/03/29 07:20:56;;;;;;;2.87;1.37;;;10.70;68.70;;;;;;4973355;28;20479;-74
2023/03/29 07:23:22;;;;;;;2.50;1.37;;;10.80;67.00;;;;;;4973648;28;20454;-73
2023/03/29 07:25:50;;;;;;;2.73;1.10;;;11.00;67.60;;;;;;4974905;28;20477;-73
2023/03/29 07:28:17;;;;;;;2.83;1.00;;;11.20;66.70;;;;;;4977164;28;20501;-73
2023/03/29 07:30:44;;;;;;;1.90;0.80;;;11.40;66.70;;;;;;4976680;28;20998;-73
2023/03/29 07:33:11;;;;;;;2.93;1.00;;;11.40;65.20;;;;;;4976950;28;20481;-73
2023/03/29 07:35:38;;;;;;;2.40;1.13;;;11.30;66.90;;;;;;4976944;28;20446;-73
2023/03/29 07:38:07;;;;;;;2.40;1.00;;;11.40;66.50;;;;;;4976911;28;20460;-73
2023/03/29 07:40:34;;;;;;;2.73;1.10;;;11.30;66.40;;;;;;4976793;28;20505;-73
2023/03/29 07:43:01;;;;;;;1.93;0.80;;;11.20;67.00;;;;;;4977671;28;20537;-73
2023/03/29 07:45:28;;;;;;;2.07;1.10;;;11.10;67.50;;;;;;4976661;28;20569;-73
2023/03/29 07:47:57;;;;;;;2.33;1.00;;;11.10;67.20;;;;;;4976478;28;20489;-73
2023/03/29 07:50:24;;;;;;;2.00;1.00;;;11.30;68.40;;;;;;4976599;28;20457;-72
2023/03/29 07:52:50;;;;;;;2.13;1.00;;;11.20;66.40;;;;;;4976599;28;20458;-73
2023/03/29 07:55:19;;;;;;;2.20;1.10;;;11.30;66.50;;;;;;4976952;28;20446;-73
2023/03/29 07:57:46;;;;;;;2.83;1.07;;;11.20;65.30;;;;;;4976614;28;20454;-72
2023/03/29 08:00:14;;;;;;;4.00;1.07;;;11.20;67.10;;;;;;4976508;28;20458;-72
2023/03/29 08:02:43;;;;;;;2.47;1.00;;;11.10;65.50;;;;;;4976011;28;20490;-71
2023/03/29 08:05:11;;;;;;;3.60;1.00;;;11.20;66.40;;;;;;4976429;28;20536;-72
2023/03/29 08:07:38;;;;;;;2.30;0.90;;;11.40;65.40;;;;;;4976400;28;20493;-72
2023/03/29 08:10:06;;;;;;;2.50;0.80;;;11.60;64.70;;;;;;4976254;28;20453;-72
2023/03/29 08:12:35;;;;;;;2.70;1.30;;;11.30;65.00;;;;;;4976209;28;20473;-72
2023/03/29 08:15:01;;;;;;;2.00;1.00;;;11.50;66.90;;;;;;4976422;28;20458;-72
2023/03/29 08:17:28;;;;;;;2.20;1.00;;;11.70;65.90;;;;;;4976298;28;20493;-72
2023/03/29 08:19:55;;;;;;;3.13;1.20;;;11.80;66.40;;;;;;4975839;28;20990;-72
2023/03/29 08:22:21;;;;;;;3.53;2.10;;;11.90;66.70;;;;;;4976072;28;20482;-73
2023/03/29 08:24:48;;;;;;;2.40;0.90;;;12.00;64.80;;;;;;4976090;28;20512;-73
2023/03/29 08:27:15;;;;;;;2.10;0.90;;;11.90;64.70;;;;;;4976009;28;20494;-71
2023/03/29 08:29:43;;;;;;;2.40;1.10;;;11.70;66.10;;;;;;4975970;28;20458;-72
2023/03/29 08:32:10;;;;;;;2.63;1.00;;;11.60;67.80;;;;;;4975838;28;20517;-74
2023/03/29 08:34:37;;;;;;;2.90;1.30;;;11.60;65.40;;;;;;4975951;28;20505;-74
2023/03/29 08:37:04;;;;;;;2.40;1.37;;;11.50;66.40;;;;;;4975771;28;20450;-74
2023/03/29 08:39:31;;;;;;;2.20;1.00;;;11.80;65.80;;;;;;4975520;28;20947;-74
2023/03/29 08:42:15;;;;;;;2.77;1.00;;;11.60;65.70;;;;;;4975743;28;20556;-74
2023/03/29 08:44:56;;;;;;;3.70;1.57;;;11.70;65.60;;;;;;4975896;28;20438;-72
2023/03/29 08:47:32;;;;;;;2.37;0.80;;;11.50;66.50;;;;;;4975624;28;20819;-71
2023/03/29 08:49:59;;;;;;;2.70;1.03;;;11.40;66.80;;;;;;4975708;28;20441;-71
2023/03/29 08:52:33;;;;;;;2.00;0.90;;;11.40;66.60;;;;;;4975569;28;20470;-74
2023/03/29 08:55:02;;;;;;;2.93;1.07;;;11.50;66.70;;;;;;4975568;28;20906;-74
2023/03/29 08:57:32;;;;;;;2.23;1.10;;;11.70;66.50;;;;;;4975498;28;20585;-73
2023/03/29 09:00:04;;;;;;;2.30;1.03;;;11.80;65.60;;;;;;4975355;28;20819;-73
2023/03/29 09:02:33;;;;;;;2.30;1.10;;;11.80;65.70;;;;;;4975065;28;20486;-73
2023/03/29 09:05:05;;;;;;;2.10;1.07;;;11.80;64.50;;;;;;4975435;28;20482;-73
2023/03/29 09:07:32;;;;;;;2.50;1.20;;;11.80;64.60;;;;;;4975348;28;20557;-73
2023/03/29 09:09:59;;;;;;;2.00;1.00;;;11.70;62.90;;;;;;4975330;28;20450;-73
2023/03/29 09:12:35;;;;;;;2.10;0.90;;;11.70;62.90;;;;;;4974870;28;21066;-73
2023/03/29 09:15:18;;;;;;;2.57;1.03;;;11.70;64.00;;;;;;4975801;28;20431;-72
2023/03/29 09:17:59;;;;;;;1.87;0.80;;;11.80;62.60;;;;;;4975214;28;20469;-73
2023/03/29 09:20:35;;;;;;;3.40;1.23;;;11.80;64.20;;;;;;4974996;28;20434;-74
2023/03/29 09:23:16;;;;;;;2.03;1.00;;;11.90;62.70;;;;;;4975069;28;20466;-72
2023/03/29 09:25:53;;;;;;;2.30;0.90;;;12.00;62.40;;;;;;4975033;28;20437;-73
2023/03/29 09:28:23;;;;;;;3.13;1.43;;;12.20;63.90;;;;;;4974723;28;20779;-74
2023/03/29 09:30:57;;;;;;;2.00;1.03;;;12.30;63.20;;;;;;4974889;28;20509;-74
2023/03/29 09:33:26;;;;;;;2.10;1.00;;;12.50;61.90;;;;;;4975204;28;20454;-73
2023/03/29 09:36:01;;;;;;;2.77;0.83;;;12.80;62.10;;;;;;4974883;28;20482;-72
2023/03/29 09:38:29;;;;;;;2.10;1.00;;;12.90;59.30;;;;;;4974864;28;20438;-73
2023/03/29 09:41:02;;;;;;;3.97;1.20;;;12.90;60.20;;;;;;4974862;28;20458;-73
2023/03/29 09:43:32;;;;;;;1.90;0.90;;;12.90;59.50;;;;;;4974525;28;20411;-74
2023/03/29 09:46:04;;;;;;;2.40;1.00;;;13.00;60.30;;;;;;4974756;28;20497;-74
2023/03/29 09:48:36;;;;;;;6.50;1.37;;;12.90;60.20;;;;;;4974261;28;20439;-74
2023/03/29 09:51:06;;;;;;;2.63;1.10;;;12.90;58.90;;;;;;4974214;28;20849;-74
2023/03/29 09:53:33;;;;;;;2.00;1.00;;;12.80;59.90;;;;;;4974580;28;20470;-74
2023/03/29 09:56:01;;;;;;;2.40;1.00;;;12.90;58.90;;;;;;4974550;28;20461;-74
2023/03/29 09:58:31;;;;;;;2.40;1.10;;;12.90;60.00;;;;;;4974122;28;20543;-74
2023/03/29 10:01:01;;;;;;;2.30;1.07;;;12.90;59.80;;;;;;4974318;28;20564;-74
2023/03/29 10:03:30;;;;;;;2.20;1.03;;;13.20;59.50;;;;;;4974328;28;20442;-73
2023/03/29 10:06:00;;;;;;;2.30;1.13;;;13.30;59.30;;;;;;4974314;28;20450;-74
2023/03/29 10:08:28;;;;;;;2.23;1.13;;;13.40;58.10;;;;;;4974170;28;21050;-74
2023/03/29 10:10:58;;;;;;;2.30;1.13;;;13.40;58.90;;;;;;4974203;28;20469;-74
2023/03/29 10:13:29;;;;;;;2.80;1.10;;;13.50;59.20;;;;;;4973790;28;20986;-74
2023/03/29 10:16:03;;;;;;;2.30;1.00;;;13.60;59.80;;;;;;4973903;28;20434;-74
2023/03/29 10:18:30;;;;;;;2.27;1.03;;;13.70;57.60;;;;;;4974014;28;20431;-73
2023/03/29 10:21:02;;;;;;;1.93;0.93;;;13.90;58.10;;;;;;4973940;28;20470;-74
2023/03/29 10:23:33;;;;;;;2.37;0.93;;;13.70;59.00;;;;;;4974183;28;20450;-73
2023/03/29 10:26:03;;;;;;;1.90;0.90;;;14.00;58.50;;;;;;4974415;28;20810;-74
2023/03/29 10:28:31;;;;;;;2.40;1.30;;;14.10;57.20;;;;;;4974161;28;20474;-73
2023/03/29 10:31:02;;;;;;;3.13;1.30;;;14.10;58.50;;;;;;4974019;28;20840;-73
2023/03/29 10:33:34;;;;;;;2.30;1.13;;;14.30;57.00;;;;;;4974150;28;20537;-74
2023/03/29 10:36:04;;;;;;;2.00;1.00;;;14.30;57.20;;;;;;4973915;28;20861;-74
2023/03/29 10:38:31;;;;;;;1.90;1.00;;;14.40;57.70;;;;;;4974273;28;20517;-74
2023/03/29 10:41:06;;;;;;;2.13;1.07;;;14.70;57.30;;;;;;4973742;28;20997;-74
2023/03/29 10:43:38;;;;;;;2.80;1.20;;;14.90;54.70;;;;;;4974201;28;20444;-73
2023/03/29 10:46:11;;;;;;;3.23;1.10;;;15.20;54.10;;;;;;4973986;28;20525;-75
2023/03/29 10:48:45;;;;;;;2.00;0.90;;;15.30;55.00;;;;;;4973916;28;20467;-74
2023/03/29 10:51:14;;;;;;;2.43;1.30;;;15.50;55.80;;;;;;4973864;28;20470;-74
2023/03/29 10:53:41;;;;;;;3.50;1.20;;;15.50;55.20;;;;;;4973789;28;21018;-74
2023/03/29 10:56:23;;;;;;;1.87;0.80;;;15.70;55.90;;;;;;4974100;28;20458;-74
2023/03/29 10:59:08;;;;;;;2.40;1.30;;;15.90;56.50;;;;;;4974093;28;20438;-74
2023/03/29 11:01:44;;;;;;;2.00;1.13;;;15.90;55.30;;;;;;4976383;28;20823;-74
2023/03/29 11:04:25;;;;;;;2.30;1.03;;;16.00;56.30;;;;;;4977812;28;20492;-74
2023/03/29 11:07:00;;;;;;;2.23;1.10;;;16.20;54.10;;;;;;4977555;28;20497;-74
2023/03/29 11:09:41;;;;;;;2.13;1.07;;;16.20;54.10;;;;;;4977762;28;20442;-74
2023/03/29 11:12:15;;;;;;;2.23;1.07;;;16.20;54.60;;;;;;4977177;28;20473;-73
2023/03/29 11:14:51;;;;;;;2.40;1.10;;;16.00;54.30;;;;;;4977742;28;20445;-74
2023/03/29 11:17:28;;;;;;;2.83;0.90;;;15.70;55.60;;;;;;4977536;28;20537;-72
2023/03/29 11:20:03;;;;;;;2.37;1.10;;;15.60;55.70;;;;;;4977675;28;20790;-74
2023/03/29 11:22:41;;;;;;;2.10;1.10;;;15.60;54.70;;;;;;4977377;28;20484;-73
2023/03/29 11:25:26;;;;;;;2.50;1.20;;;15.60;55.10;;;;;;4977141;28;20846;-72
2023/03/29 11:28:00;;;;;;;2.60;1.30;;;15.80;55.40;;;;;;4977336;28;20474;-73
2023/03/29 11:30:35;;;;;;;3.13;1.20;;;16.00;54.60;;;;;;4977316;28;20465;-72
2023/03/29 11:33:14;;;;;;;2.20;0.90;;;16.10;54.60;;;;;;4977561;28;20437;-73
2023/03/29 11:35:58;;;;;;;2.40;1.13;;;16.60;53.50;;;;;;4976859;28;20442;-73
2023/03/29 11:38:32;;;;;;;2.20;1.03;;;16.80;51.80;;;;;;4977857;28;20438;-73
2023/03/29 11:41:03;;;;;;;2.40;1.10;;;16.80;52.60;;;;;;4977367;28;20467;-72
2023/03/29 11:43:34;;;;;;;2.63;0.80;;;16.70;50.80;;;;;;4977253;28;20913;-73
2023/03/29 11:46:09;;;;;;;2.80;1.57;;;16.80;50.00;;;;;;4976905;28;20430;-72
2023/03/29 11:48:41;;;;;;;2.10;1.00;;;16.70;47.80;;;;;;4977412;28;20553;-71
2023/03/29 11:51:14;;;;;;;2.40;0.90;;;16.80;48.40;;;;;;4977313;28;20477;-72
2023/03/29 11:53:49;;;;;;;2.20;1.00;;;17.20;47.60;;;;;;4977305;28;20454;-72
2023/03/29 11:56:23;;;;;;;2.20;0.80;;;17.20;47.00;;;;;;4977171;28;20434;-72
2023/03/29 11:58:57;;;;;;;2.00;0.90;;;17.10;47.30;;;;;;4977109;28;20490;-71
2023/03/29 12:01:31;;;;;;;3.37;1.23;;;17.00;47.60;;;;;;4976936;28;20497;-72
2023/03/29 12:04:01;;;;;;;2.87;1.00;;;17.00;48.20;;;;;;4976967;28;20938;-72
2023/03/29 12:06:36;;;;;;;2.70;1.20;;;16.70;48.90;;;;;;4989246;28;20439;-71
2023/03/29 12:09:08;;;;;;;2.07;0.90;;;16.40;49.20;;;;;;4987420;28;20471;-72
2023/03/29 12:11:39;;;;;;;2.10;0.90;;;16.50;50.00;;;;;;4975729;28;21021;-72
2023/03/29 12:14:14;;;;;;;3.20;1.10;;;16.50;48.30;;;;;;4976570;28;20439;-72
2023/03/29 12:16:46;;;;;;;3.13;1.00;;;16.10;48.80;;;;;;4976349;28;20513;-73
2023/03/29 12:19:18;;;;;;;2.13;1.10;;;15.90;48.90;;;;;;4976278;28;20427;-73
2023/03/29 12:21:47;;;;;;;3.03;1.00;;;15.90;49.10;;;;;;4976277;28;20474;-74
2023/03/29 12:24:17;;;;;;;2.17;1.00;;;16.20;49.40;;;;;;4976109;28;20538;-73
2023/03/29 12:27:19;;;;;;;3.20;1.07;;;16.30;48.40;;;;;;4976654;28;20457;-72
2023/03/29 12:30:13;;;;;;;3.60;1.20;;;16.30;48.80;;;;;;4966168;28;20475;-73
2023/03/29 12:32:52;;;;;;;4.47;1.40;;;16.20;50.30;;;;;;4976330;28;20879;-73
2023/03/29 12:35:27;;;;;;;3.00;1.20;;;16.20;50.70;;;;;;4976198;28;20437;-72
2023/03/29 12:38:07;;;;;;;3.13;0.90;;;16.30;50.80;;;;;;4976186;28;20426;-72
2023/03/29 12:40:40;;;;;;;2.40;0.90;;;16.30;49.50;;;;;;4976203;28;20458;-72
2023/03/29 12:43:09;;;;;;;2.53;0.90;;;16.30;50.10;;;;;;4976142;28;20478;-71
2023/03/29 12:45:39;;;;;;;2.30;1.00;;;16.40;49.90;;;;;;4975982;28;20443;-72
2023/03/29 12:48:07;;;;;;;2.10;0.90;;;16.50;50.40;;;;;;4975848;28;20486;-72
2023/03/29 12:50:36;;;;;;;2.40;1.07;;;16.50;51.00;;;;;;4975934;28;20454;-73
2023/03/29 12:53:07;;;;;;;2.87;1.00;;;16.20;52.60;;;;;;4975899;28;20454;-71
2023/03/29 12:55:47;;;;;;;2.20;0.90;;;16.20;52.90;;;;;;4975577;28;20443;-73
2023/03/29 12:58:26;;;;;;;2.17;1.10;;;16.10;53.50;;;;;;4975726;28;20434;-72
2023/03/29 13:01:04;;;;;;;2.10;1.00;;;16.10;54.30;;;;;;4975725;28;20470;-73
2023/03/29 13:03:42;;;;;;;2.37;0.90;;;16.00;53.90;;;;;;4975694;28;20508;-73
2023/03/29 13:06:11;;;;;;;2.33;0.83;;;16.00;55.40;;;;;;4976039;28;20545;-73
2023/03/29 13:08:42;;;;;;;2.20;0.90;;;16.00;55.80;;;;;;4975526;28;20576;-73
2023/03/29 13:11:13;;;;;;;2.60;0.90;;;15.90;57.70;;;;;;4975062;28;20513;-72
2023/03/29 13:13:41;;;;;;;2.00;0.90;;;15.70;60.40;;;;;;4975359;28;20443;-72
2023/03/29 13:16:11;;;;;;;2.20;0.90;;;15.80;60.90;;;;;;4975366;28;20465;-72
2023/03/29 13:18:53;;;;;;;2.40;1.20;;;15.80;61.30;;;;;;4975483;28;20474;-73
2023/03/29 13:21:27;;;;;;;2.73;1.10;;;15.90;61.00;;;;;;4975196;28;20466;-72
2023/03/29 13:24:04;;;;;;;2.77;0.93;;;16.00;60.00;;;;;;4974530;28;20433;-72
2023/03/29 13:26:44;;;;;;;2.40;1.00;;;16.10;60.60;;;;;;4975278;28;20450;-73
2023/03/29 13:29:33;;;;;;;3.13;1.30;;;16.30;60.20;;;;;;4975167;28;20471;-72
2023/03/29 13:32:10;;;;;;;2.90;1.13;;;16.50;59.10;;;;;;4974942;28;20473;-73
2023/03/29 13:34:44;;;;;;;3.00;1.20;;;16.40;57.90;;;;;;4975874;28;20445;-73
2023/03/29 13:37:25;;;;;;;2.63;1.37;;;16.40;57.80;;;;;;4974867;28;20445;-72
2023/03/29 13:39:54;;;;;;;3.40;1.00;;;16.40;57.80;;;;;;4974830;28;20493;-73
2023/03/29 13:42:26;;;;;;;2.37;0.97;;;16.50;59.70;;;;;;4974777;28;20482;-73
2023/03/29 13:45:04;;;;;;;2.00;1.00;;;16.60;59.80;;;;;;4975083;28;20498;-72
2023/03/29 13:47:43;;;;;;;2.10;0.90;;;16.50;59.10;;;;;;4975382;28;20454;-73
2023/03/29 13:50:17;;;;;;;2.20;1.00;;;16.50;59.40;;;;;;4974731;28;20505;-73
2023/03/29 13:52:54;;;;;;;1.90;0.80;;;16.60;58.80;;;;;;4974845;28;20466;-73
2023/03/29 13:55:26;;;;;;;1.93;0.90;;;16.80;59.70;;;;;;4974579;28;20500;-73
2023/03/29 13:57:57;;;;;;;2.10;0.90;;;16.90;60.10;;;;;;4974853;28;20431;-72
2023/03/29 14:00:29;;;;;;;1.90;0.73;;;16.70;60.20;;;;;;4974881;28;20943;-74
2023/03/29 14:03:00;;;;;;;2.10;1.00;;;16.60;60.60;;;;;;4974433;28;20836;-74
2023/03/29 14:05:30;;;;;;;2.20;1.00;;;16.90;60.90;;;;;;4975255;28;20462;-74
2023/03/29 14:08:03;;;;;;;3.23;0.97;;;17.10;61.10;;;;;;4974322;28;20486;-74
2023/03/29 14:10:37;;;;;;;2.20;0.93;;;17.00;59.50;;;;;;4974106;28;20920;-74
2023/03/29 14:13:04;;;;;;;2.73;1.13;;;17.20;59.60;;;;;;4974694;28;20435;-74
2023/03/29 14:15:43;;;;;;;2.13;1.13;;;17.30;58.80;;;;;;4974417;28;20861;-74
2023/03/29 14:18:12;;;;;;;2.10;0.90;;;17.40;58.70;;;;;;4974275;28;20908;-74
2023/03/29 14:20:42;;;;;;;3.00;1.20;;;17.50;58.20;;;;;;4974333;28;20457;-75
2023/03/29 14:23:10;;;;;;;1.90;0.80;;;17.70;56.90;;;;;;4974689;28;20446;-74
2023/03/29 14:25:39;;;;;;;2.47;0.80;;;17.50;57.30;;;;;;4975305;28;20849;-74
2023/03/29 14:28:18;;;;;;;2.23;1.03;;;17.70;58.40;;;;;;4974477;28;20482;-74
2023/03/29 14:30:46;;;;;;;2.77;0.80;;;17.90;57.00;;;;;;4974588;28;20497;-73
2023/03/29 14:33:14;;;;;;;2.00;0.80;;;18.10;56.10;;;;;;4975337;28;20521;-74
2023/03/29 14:35:41;;;;;;;2.10;0.90;;;18.00;55.90;;;;;;4977571;28;20458;-73
2023/03/29 14:38:12;;;;;;;2.73;0.80;;;18.20;55.80;;;;;;4978245;28;20457;-74
2023/03/29 14:40:40;;;;;;;2.20;0.90;;;18.40;56.20;;;;;;4978207;28;20927;-74
2023/03/29 14:43:10;;;;;;;2.10;1.07;;;18.50;56.10;;;;;;4978538;28;20454;-73
2023/03/29 14:45:37;;;;;;;2.10;0.90;;;18.60;55.50;;;;;;4978629;28;20520;-73
2023/03/29 14:48:04;;;;;;;2.90;1.27;;;18.80;55.30;;;;;;4978857;28;20514;-74
2023/03/29 14:50:31;;;;;;;4.00;0.80;;;18.80;54.50;;;;;;4979417;28;20465;-74
2023/03/29 14:53:00;;;;;;;2.13;1.03;;;18.50;56.00;;;;;;4979640;28;20456;-74
2023/03/29 14:55:27;;;;;;;2.30;1.27;;;18.20;55.70;;;;;;4980007;28;20464;-73
2023/03/29 14:57:56;;;;;;;3.73;1.17;;;18.30;56.00;;;;;;4981217;28;20525;-72
2023/03/29 15:00:28;;;;;;;2.67;1.30;;;18.40;56.00;;;;;;4979656;28;20512;-73
2023/03/29 15:02:58;;;;;;;4.27;1.37;;;18.40;55.80;;;;;;4979798;28;20504;-72
2023/03/29 15:05:36;;;;;;;2.07;1.00;;;18.30;55.50;;;;;;4981077;28;20458;-73
2023/03/29 15:08:06;;;;;;;2.43;0.90;;;18.20;54.70;;;;;;4977617;28;20839;-73
2023/03/29 15:10:34;;;;;;;3.57;1.30;;;18.00;54.70;;;;;;4977956;28;20462;-72
2023/03/29 15:13:05;;;;;;;2.00;0.90;;;17.90;53.50;;;;;;4977831;28;20454;-72
2023/03/29 15:15:34;;;;;;;2.67;1.10;;;17.50;53.70;;;;;;4978034;28;20532;-73
2023/03/29 15:18:02;;;;;;;3.33;1.20;;;17.60;55.00;;;;;;4977541;28;20457;-73
2023/03/29 15:20:33;;;;;;;2.87;1.00;;;17.60;53.70;;;;;;4977476;28;20500;-73
2023/03/29 15:23:02;;;;;;;2.30;1.00;;;17.60;54.20;;;;;;4977343;28;20437;-73
2023/03/29 15:25:35;;;;;;;2.50;1.10;;;17.50;54.70;;;;;;4977285;28;20517;-73
2023/03/29 15:28:04;;;;;;;2.33;1.00;;;17.50;54.10;;;;;;4977261;28;20430;-73
2023/03/29 15:30:37;;;;;;;2.10;0.87;;;17.60;52.60;;;;;;4977209;28;20497;-72
2023/03/29 15:33:16;;;;;;;4.40;1.33;;;17.50;52.80;;;;;;4977045;28;20426;-72
2023/03/29 15:35:45;;;;;;;4.20;1.27;;;17.40;53.00;;;;;;4977453;28;20449;-73
2023/03/29 15:38:13;;;;;;;3.33;1.00;;;17.50;53.40;;;;;;4976775;28;20449;-73
2023/03/29 15:40:40;;;;;;;3.30;1.00;;;17.50;53.20;;;;;;4977900;28;20450;-73
2023/03/29 15:43:08;;;;;;;2.43;1.10;;;17.60;53.10;;;;;;4977182;28;20442;-73
2023/03/29 15:45:34;;;;;;;2.30;0.90;;;17.70;53.40;;;;;;4976973;28;20450;-73
2023/03/29 15:48:03;;;;;;;4.27;1.43;;;17.80;53.50;;;;;;4976415;28;20446;-72
2023/03/29 15:50:30;;;;;;;2.53;1.10;;;18.00;53.60;;;;;;4976548;28;20462;-73
2023/03/29 15:52:58;;;;;;;4.03;1.43;;;18.00;54.00;;;;;;4976918;28;20469;-73
2023/03/29 15:55:28;;;;;;;2.30;0.87;;;18.00;53.20;;;;;;4976832;28;20469;-72
2023/03/29 15:57:56;;;;;;;2.43;1.20;;;18.10;53.90;;;;;;4976974;28;20554;-73
2023/03/29 16:00:25;;;;;;;2.70;1.10;;;18.30;53.80;;;;;;4976947;28;20458;-73
2023/03/29 16:02:52;;;;;;;2.00;1.10;;;18.20;53.40;;;;;;4976342;28;20955;-73
2023/03/29 16:05:19;;;;;;;2.20;1.03;;;18.00;52.70;;;;;;4976735;28;20454;-73
2023/03/29 16:07:46;;;;;;;2.57;1.37;;;18.00;52.60;;;;;;4977022;28;20446;-73